»·PEaware :: N21AT KWHP-KSNA

N21AT :: KWHP-KSNA

FLIGHT INFORMATION

Flight Status: Arrived
Operator: Privately registered:
United States
More flights under this callsign
Pilot: Ryan L. (9775)
Aircraft: Diamond DA-40
(DA40)
More flights by this aircraft type
Origin: KWHP Whiteman
United States
Destination: KSNA John Wayne-Orange Co
United States
More flights between these airports :: More routes between these airports
Route: V186 BAYJY V363 POXKU V8 SLI
File this flight plan on PilotEdge
Remarks:
Altitude:
(Current/Filed)
5,000ft
Speed:
(Current/Filed)
125kts
Departed: 29-Nov-20 06:30 PM
Arrived: 29-Nov-20 07:08 PM
Distance/Time
Traveled:
45nm/0:38
Distance/Time
To Go:
Arrived

Flight Plot

Page will automatically refresh every two minutes.


Map Options




Map Legend


Flown Route
Filed Route
Departure Airport
Arrival Airport
Navaid (VOR, NDB)
Fix

Horizontal Profiles

Position Reports

Time Latitude Longitude Heading Altitude Ground
Speed
29-Nov-20 17:59 34.262191 -118.415569 86 997ft 0kts
29-Nov-20 18:00 34.262191 -118.415569 86 997ft 0kts
29-Nov-20 18:01 34.262191 -118.415569 86 997ft 0kts
29-Nov-20 18:02 34.262191 -118.415569 86 997ft 0kts
29-Nov-20 18:03 34.262191 -118.415569 86 997ft 0kts
29-Nov-20 18:04 34.262191 -118.415569 86 997ft 0kts
29-Nov-20 18:05 34.262191 -118.415569 86 997ft 0kts
29-Nov-20 18:06 34.262191 -118.415569 86 997ft 0kts
29-Nov-20 18:07 34.262191 -118.415569 86 997ft 0kts
29-Nov-20 18:08 34.262191 -118.415569 86 997ft 0kts
29-Nov-20 18:09 34.261390 -118.415017 138 994ft 10kts
29-Nov-20 18:10 34.258368 -118.411791 139 982ft 16kts
29-Nov-20 18:11 34.255532 -118.408891 174 962ft 0kts
29-Nov-20 18:12 34.255532 -118.408891 174 962ft 0kts
29-Nov-20 18:13 34.255532 -118.408891 174 962ft 0kts
29-Nov-20 18:14 34.255532 -118.408891 174 962ft 0kts
29-Nov-20 18:15 34.255532 -118.408891 174 962ft 0kts
29-Nov-20 18:16 34.255532 -118.408891 174 962ft 0kts
29-Nov-20 18:17 34.255532 -118.408891 174 962ft 0kts
29-Nov-20 18:18 34.255532 -118.408891 174 962ft 0kts
29-Nov-20 18:19 34.255532 -118.408891 174 962ft 0kts
29-Nov-20 18:21 34.255532 -118.408891 174 962ft 0kts
29-Nov-20 18:22 34.255532 -118.408891 174 962ft 0kts
29-Nov-20 18:23 34.255532 -118.408891 174 962ft 0kts
29-Nov-20 18:24 34.255532 -118.408891 174 962ft 0kts
29-Nov-20 18:25 34.255532 -118.408891 174 962ft 0kts
29-Nov-20 18:26 34.255532 -118.408891 174 962ft 0kts
29-Nov-20 18:27 34.255532 -118.408891 174 962ft 0kts
29-Nov-20 18:28 34.255532 -118.408891 174 962ft 0kts
29-Nov-20 18:29 34.255532 -118.408891 174 962ft 0kts
29-Nov-20 18:30 34.258015 -118.412117 318 982ft 63kts
29-Nov-20 18:31 34.268187 -118.434649 279 1616ft 83kts
29-Nov-20 18:32 34.267293 -118.464001 273 2396ft 90kts
29-Nov-20 18:33 34.266413 -118.494859 268 3220ft 92kts
29-Nov-20 18:34 34.270856 -118.522810 337 4055ft 84kts
29-Nov-20 18:34 34.290222 -118.532070 337 4680ft 90kts
29-Nov-20 18:36 34.268986 -118.534260 148 5030ft 131kts
29-Nov-20 18:37 34.241112 -118.507352 132 4999ft 127kts
29-Nov-20 18:37 34.216947 -118.486553 134 4997ft 127kts
29-Nov-20 18:39 34.201049 -118.442391 102 4998ft 123kts
29-Nov-20 18:39 34.193908 -118.409025 100 4998ft 123kts
29-Nov-20 18:40 34.186444 -118.369295 99 4998ft 123kts
29-Nov-20 18:42 34.173254 -118.324843 110 4999ft 124kts
29-Nov-20 18:42 34.162817 -118.292428 103 4999ft 123kts
29-Nov-20 18:43 34.151187 -118.253245 107 5000ft 124kts
29-Nov-20 18:44 34.139531 -118.213988 108 4998ft 124kts
29-Nov-20 18:45 34.127801 -118.174885 108 5000ft 123kts
29-Nov-20 18:46 34.116092 -118.135950 108 5009ft 124kts
29-Nov-20 18:47 34.104766 -118.098357 108 5006ft 124kts
29-Nov-20 18:48 34.092994 -118.059414 107 5009ft 124kts
29-Nov-20 18:49 34.081232 -118.020607 107 5009ft 125kts
29-Nov-20 18:50 34.069373 -117.981444 107 5009ft 125kts
29-Nov-20 18:51 34.049034 -117.948309 100 5008ft 124kts
29-Nov-20 18:52 34.049842 -117.905826 106 4407ft 141kts
29-Nov-20 18:53 34.033718 -117.863272 111 4050ft 131kts
29-Nov-20 18:54 34.021730 -117.823323 106 4030ft 124kts
29-Nov-20 18:55 34.010143 -117.786369 108 4031ft 123kts
29-Nov-20 18:56 33.979060 -117.775819 191 4032ft 130kts
29-Nov-20 18:57 33.943570 -117.778713 166 4032ft 128kts
29-Nov-20 18:58 33.908880 -117.768353 163 3951ft 128kts
29-Nov-20 18:59 33.874131 -117.758123 173 3598ft 129kts
29-Nov-20 19:00 33.839218 -117.761617 210 3222ft 134kts
29-Nov-20 19:01 33.807876 -117.786326 207 2828ft 137kts
29-Nov-20 19:02 33.773995 -117.806076 209 2075ft 134kts
29-Nov-20 19:03 33.741408 -117.826876 207 1386ft 127kts
29-Nov-20 19:04 33.715256 -117.843843 206 814ft 91kts
29-Nov-20 19:05 33.693440 -117.857574 208 352ft 81kts
29-Nov-20 19:06 33.675118 -117.869224 207 56ft 49kts
29-Nov-20 19:07 33.669078 -117.871496 139 58ft 4kts
29-Nov-20 19:08 33.667773 -117.872376 221 59ft 4kts
29-Nov-20 19:09 33.666763 -117.872600 155 60ft 0kts

Navigation Log

Ident Type
Flight plan parsing failed, navigation log unavailable